ADDS TAF Data INFO
IDs: Format: Raw Decoded Include METARs

Data at: 2044 UTC 15 Aug 2018

KTYS 151953Z 29003KT 10SM FEW038 SCT120 OVC180 29/19 A3009 RMK AO2 SLP177 T02890194

KTYS 151720Z 1518/1618 00000KT P6SM SCT035 BKN100
  FM160000 01002KT P6SM BKN200
  FM161500 24009KT P6SM SCT250


KGSO 151954Z 00000KT 10SM FEW055 OVC250 31/18 A3008 RMK AO2 SLP174 T03060183

KGSO 151725Z 1518/1618 24003KT P6SM SCT050 SCT150
  FM160000 00000KT P6SM FEW250
  FM161100 22003KT P6SM SCT045


KCLT 151952Z VRB04KT 9SM FEW045 SCT100 BKN250 32/19 A3007 RMK AO2 SLP173 T03220194

KCLT 151956Z 1520/1624 24004KT P6SM SCT045 SCT100 BKN250
  FM152200 28003KT P6SM SCT060
  FM160500 VRB02KT P6SM FEW080 SCT150
  FM161400 23004KT P6SM FEW050 SCT200
  FM161700 24007KT P6SM SCT050


KRDU 151951Z 26006KT 10SM FEW050 BKN250 32/19 A3005 RMK AO2 SLP171 T03170194

KRDU 151725Z 1518/1618 25004KT P6SM SCT050 SCT200
  FM160000 00000KT P6SM FEW250
  FM161500 22006KT P6SM FEW045


KPOB 151956Z AUTO 30007KT 10SM FEW050 BKN110 33/20 A3003 RMK AO2 SLP170 T03260198 $

TAF AMD KPOB 151755Z 1517/1623 22006KT 9999 VCSH SCT050 QNH3002INS
  BECMG 1521/1522 22006KT 9999 NSW SCT050 SCT250 QNH3002INS TX33/1520Z TN22/1611Z


KFBG 151956Z AUTO 33003KT 10SM FEW200 32/20 A3002 RMK AO2 SLP166 T03240196

TAF AMD KFBG 151755Z 1517/1623 22006KT 9999 VCSH SCT050 QNH3002INS
  BECMG 1521/1522 22006KT 9999 NSW SCT050 SCT250 QNH3002INS TX33/1520Z TN22/1611Z


KFAY 151953Z 24003KT 10SM CLR 33/18 A3003 RMK AO2 SLP162 T03280178

KFAY 151725Z 1518/1618 23006KT P6SM SCT060
  FM160000 18004KT P6SM BKN050
  FM160930 20003KT 5SM BR FEW060
  FM161200 21005KT P6SM SCT035
  FM161600 23008KT P6SM SCT045


KRWI 151953Z AUTO 23005KT 10SM FEW050 31/21 A3003 RMK AO2 SLP168 T03110206

KRWI 151725Z 1518/1618 25007KT P6SM SCT050
  FM160000 00000KT P6SM FEW250
  FM161000 00000KT 3SM BR FEW010
  FM161200 00000KT P6SM SCT008
  FM161300 VRB02KT P6SM FEW120
  FM161600 22007KT P6SM SCT045


KISO 151956Z 24005KT 10SM BKN060 33/19 A3004

KISO 151730Z 1518/1618 22004KT P6SM SCT050
  FM160800 VRB03KT 5SM BR SCT250
  FM161200 22004KT P6SM SCT250 AMD LTD TO CLD VIS AND WIND


KGWW 152035Z AUTO 21004KT 10SM CLR 32/21 A3003 RMK AO2 T03190211

No TAF found for KGWW

KGSB 151956Z AUTO 25005KT 10SM CLR 33/19 A3001 RMK AO2 SLP164 T03300191 $

TAF KGSB 152000Z 1520/1702 22006KT 9999 SCT050 SCT250 QNH2998INS
  BECMG 1608/1609 24003KT 6000 BR SKC QNH2998INS
  BECMG 1613/1614 27006KT 9999 NSW FEW030 QNH2996INS TX33/1620Z TN22/1611Z


KDPL 152030Z AUTO 26003KT 10SM SCT060 33/21 A3003 RMK AO2

No TAF found for KDPL

KCTZ 152030Z AUTO 00000KT 10SM CLR 33/21 A3003 RMK AO2 T03300205

No TAF found for KCTZ

KORF 151951Z 02008KT 10SM CLR 31/22 A3001 RMK AO2 SLP162 T03110222

KORF 151740Z 1518/1618 29005KT P6SM FEW050
  FM152100 14005KT P6SM SCT050
  FM160100 19004KT P6SM FEW250
  FM161600 25005KT P6SM FEW050


KLFI 151856Z 25007KT 10SM FEW050 FEW200 32/20 A3002 RMK SLPNO

TAF KLFI 151700Z 1517/1623 22006KT 9999 FEW040 QNH3000INS
  BECMG 1618/1619 20006KT 9999 BKN035 OVC050 QNH2998INS TX31/1617Z TN25/1608Z


KNTU 151956Z 08006KT 10SM BKN050 BKN280 30/18 A3000 RMK AO2 SLP162 T03000183

TAF KNTU 1515/1615 25008KT 9999 FEW030 SCT280 QNH2996INS
  FM160700 22006KT 9999 SCT030 SCT280 QNH3003INS T33/1519Z T24/1609Z FN20008


KECG 151954Z AUTO 19009KT 10SM FEW047 31/23 A3002 RMK AO2 SLP164 T03110228

KECG 151740Z 1518/1618 22009KT P6SM SCT045
  FM160100 20004KT P6SM SKC
  FM161500 22007KT P6SM SCT040


KEWN 152040Z 16010KT 10SM SCT050 SCT060 BKN070 27/22 A3004 RMK AO2 LTG DSNT E AND SE T02670222

KEWN 151730Z 1518/1618 VRB03KT P6SM SCT050
  FM151900 21004KT P6SM VCSH SCT050
  FM152300 VRB03KT P6SM FEW050 FEW250
  FM161400 23004KT P6SM SCT250


KNKT 152009Z 18012G18KT 10SM TS FEW003 SCT100 31/24 A3004 RMK AO2 TSB1955 T03110239

TAF KNKT 1521/1621 20005KT 9999 BKN100 QNH3003INS
  TEMPO 1521/1600 VRB15G30KT 3200 TSRA SCT020 BKN030CB
  FM160000 20007KT 9999 FEW030 BKN150 QNH3005INS
  TEMPO 1609/1613 VRB03KT 3200 BR FEW050 BKN350 T24/1609Z T33/1618Z


KILM 151953Z 12007KT 10SM FEW030 BKN036 BKN044 26/22 A3004 RMK AO2 RAE23 TSE28 SLP173 P0005 T02610222

KILM 151758Z 1518/1618 23005KT P6SM VCTS FEW040CB SCT045
  TEMPO 1518/1521 VRB10G25KT 3SM TSRA BKN025CB
  FM152100 20010KT P6SM VCTS SCT035CB BKN045
  FM160100 23002KT P6SM SCT250
  FM160700 00000KT 3SM BR SCT002
  FM161300 24005KT P6SM SKC


KCAE 151956Z 15006KT 10SM SCT080 BKN250 33/20 A3003 RMK AO2 SLP167 T03280200

KCAE 152037Z 1521/1618 VRB04KT P6SM SCT050 BKN180
  FM160200 00000KT P6SM FEW250
  FM161500 VRB04KT P6SM FEW050


KSSC 151956Z 22007KT 10SM FEW055 33/17 A3004 RMK AO2A SLP172 T03300172 TSNO CHINO RWY22 $

TAF KSSC 151500Z 1515/1621 33006KT 9999 SCT050 SCT250 QNH3003INS
  BECMG 1600/1601 20006KT 9999 SCT040 BKN150 QNH3005INS
  BECMG 1607/1608 22006KT 8000 BR SCT030 BKN100 QNH3007INS
  BECMG 1614/1615 21006KT 9999 NSW FEW040 BKN120 QNH3010INS TX34/1521Z TN22/1612Z


KMMT 151956Z 18005KT 10SM FEW060 BKN250 33/18 A3005 RMK AO2A SLP176 T03270184 $

TAF KMMT 151500Z 1515/1621 33006KT 9999 SCT050 SCT200 QNH3003INS
  BECMG 1600/1601 20006KT 9999 SCT040 BKN150 QNH3005INS
  BECMG 1607/1608 22006KT 8000 BR SCT030 BKN100 QNH3007INS
  BECMG 1614/1615 21006KT 9999 NSW FEW040 BKN120 QNH3010INS TX34/1521Z TN22/1612Z


KMYR 151956Z COR 18014KT 10SM SCT042 30/24 A3006 RMK AO2 SLP177 T03000244

KMYR 151741Z 1518/1618 24006KT P6SM VCTS SCT035CB BKN045
  FM151900 20012KT P6SM VCTS SCT030CB BKN040
  TEMPO 1519/1523 VRB10G25KT 3SM TSRA BKN025CB
  FM160100 22006KT P6SM SCT250
  FM160700 23003KT 5SM BR SCT002
  FM161300 24006KT P6SM SKC


KCHS 151956Z 20003KT 10SM SCT035 BKN050 31/24 A3005 RMK AO2 SLP174 T03110239

KCHS 151729Z 1518/1618 21007KT P6SM SCT035
  TEMPO 1519/1523 VRB10G20KT 3SM -TSRA SCT035 BKN050CB
  FM160000 20007KT P6SM SCT040
  FM160600 21004KT P6SM BKN200
  FM161500 23009KT P6SM BKN050


KSAV 151953Z 18006KT 10SM TS BKN032CB BKN048 BKN065 BKN250 32/23 A3006 RMK AO2 LTG DSNT SE AND S TSB47 SLP180 OCNL LTGIC E-SE TS E-SE CB ALQDS T03170228

KSAV 151729Z 1518/1618 21006KT P6SM VCSH BKN035
  TEMPO 1519/1523 VRB10G20KT 3SM -TSRA SCT035 BKN050CB
  FM160200 19004KT P6SM BKN040
  FM160600 VRB03KT P6SM SCT200
  FM161500 21004KT P6SM BKN060


KSVN 152001Z AUTO 17008KT 10SM FEW027 FEW034 SCT047 SCT055 28/23 A3004 RMK AO2 TSE01 SLP175 FZRANO $

TAF KSVN 152000Z 1520/1702 20009KT 9999 SCT050 QNH3002INS
  TEMPO 1520/1524 22012G18KT 4800 -TSRA BKN040CB
  BECMG 1600/1601 22006KT 9999 FEW020 BKN050 QNH3005INS
  TEMPO 1608/1612 4800 BR BKN015 OVC050
  BECMG 1614/1615 20009KT 9999 FEW040 BKN100 QNH3010INS TX33/1521Z TN23/1612Z


KDCA 151952Z 30010KT 10SM BKN060 32/17 A3000 RMK AO2 SLP160 T03220172

KDCA 152031Z 1521/1624 29009KT P6SM SCT050 BKN250
  FM160000 22004KT P6SM FEW250
  FM161600 18006KT P6SM BKN150


KADW 151856Z AUTO 30007G18KT 10SM FEW055 SCT160 31/17 A3001 RMK AO2 SLP167 T03100173 $

TAF KADW 151700Z 1517/1623 30012KT 9999 FEW050 QNH2996INS
  BECMG 1600/1601 25009KT 9999 FEW050 SCT250 QNH3003INS
  BECMG 1617/1618 21009KT 9999 FEW055 SCT250 QNH3006INS TX32/1520Z TN20/1609Z